Time;durP1;ratioP1;P1;durP2;ratioP2;P2;SDS_P1;SDS_P2;PMS_P1;PMS_P2;Temp;Humidity;BMP_temperature;BMP_pressure;BME280_temperature;BME280_humidity;BME280_pressure;Samples;Min_cycle;Max_cycle;Signal;HPM_P1;HPM_P2
2023/04/28 00:01:25;;;;;;;15.20;7.82;;;;;;;;;;5136621;27;20049;-79
2023/04/28 00:03:52;;;;;;;19.55;9.23;;;;;;;;;;5118755;27;20047;-77
2023/04/28 00:06:18;;;;;;;15.02;9.43;;;;;;;;;;5133197;27;20153;-75
2023/04/28 00:08:44;;;;;;;16.08;9.75;;;;;;;;;;5129001;27;20043;-77
2023/04/28 00:11:10;;;;;;;16.42;9.52;;;;;;;;;;5139897;27;20488;-74
2023/04/28 00:13:37;;;;;;;16.52;9.60;;;;;;;;;;5138870;27;20027;-74
2023/04/28 00:16:03;;;;;;;17.00;9.82;;;;;;;;;;5137432;27;20129;-77
2023/04/28 00:18:29;;;;;;;16.35;9.95;;;;;;;;;;5131569;27;20035;-74
2023/04/28 00:20:55;;;;;;;18.27;8.05;;;;;;;;;;5153002;27;20046;-76
2023/04/28 00:23:21;;;;;;;15.57;9.38;;;;;;;;;;5157015;27;20486;-75
2023/04/28 00:25:56;;;;;;;20.00;9.63;;;;;;;;;;5138398;27;20130;-75
2023/04/28 00:28:22;;;;;;;16.40;9.15;;;;;;;;;;5156750;27;20061;-77
2023/04/28 00:30:48;;;;;;;18.33;9.68;;;;;;;;;;5142715;27;20034;-75
2023/04/28 00:33:14;;;;;;;18.48;10.57;;;;;;;;;;5121574;27;20122;-76
2023/04/28 00:35:41;;;;;;;17.00;9.73;;;;;;;;;;5115084;27;20054;-73
2023/04/28 00:38:07;;;;;;;16.55;9.27;;;;;;;;;;5152843;27;20042;-76
2023/04/28 00:40:33;;;;;;;17.25;10.07;;;;;;;;;;5117467;27;20031;-77
2023/04/28 00:43:00;;;;;;;18.33;9.88;;;;;;;;;;5133581;27;20471;-76
2023/04/28 00:45:26;;;;;;;17.00;10.00;;;;;;;;;;5121081;27;20043;-76
2023/04/28 00:47:52;;;;;;;18.40;9.43;;;;;;;;;;5156749;27;20042;-77
2023/04/28 00:50:18;;;;;;;17.55;8.95;;;;;;;;;;5138300;27;20045;-76
2023/04/28 00:52:44;;;;;;;15.07;8.30;;;;;;;;;;5156767;27;20114;-74
2023/04/28 00:55:12;;;;;;;18.08;8.48;;;;;;;;;;5156751;27;20042;-78
2023/04/28 00:57:38;;;;;;;15.40;9.20;;;;;;;;;;5120782;27;20099;-77
2023/04/28 01:00:05;;;;;;;17.13;9.57;;;;;;;;;;5136063;27;20073;-75
2023/04/28 01:02:31;;;;;;;18.42;9.85;;;;;;;;;;5154807;27;20482;-76
2023/04/28 01:04:57;;;;;;;15.68;9.43;;;;;;;;;;5151309;27;20058;-77
2023/04/28 01:07:23;;;;;;;15.68;9.50;;;;;;;;;;5151765;27;20538;-76
2023/04/28 01:09:50;;;;;;;15.75;7.97;;;;;;;;;;5131380;27;20394;-76
2023/04/28 01:12:16;;;;;;;16.75;9.20;;;;;;;;;;5137837;27;20483;-78
2023/04/28 01:14:42;;;;;;;18.13;9.43;;;;;;;;;;5143841;27;20085;-76
2023/04/28 01:17:09;;;;;;;17.67;8.73;;;;;;;;;;5115395;27;20376;-72
2023/04/28 01:19:35;;;;;;;15.98;9.60;;;;;;;;;;5145494;27;20118;-78
2023/04/28 01:22:02;;;;;;;17.00;8.93;;;;;;;;;;5120342;27;20539;-75
2023/04/28 01:24:28;;;;;;;20.38;9.10;;;;;;;;;;5137037;27;20039;-77
2023/04/28 01:26:54;;;;;;;13.48;7.60;;;;;;;;;;5117115;27;20046;-77
2023/04/28 01:29:20;;;;;;;14.15;8.38;;;;;;;;;;5144270;27;20051;-75
2023/04/28 01:31:46;;;;;;;17.10;9.20;;;;;;;;;;5140990;27;20046;-79
2023/04/28 01:34:12;;;;;;;17.77;9.40;;;;;;;;;;5137304;27;20102;-76
2023/04/28 01:36:38;;;;;;;14.80;8.88;;;;;;;;;;5146058;27;20074;-75
2023/04/28 01:39:05;;;;;;;16.77;8.68;;;;;;;;;;5155343;27;20041;-74
2023/04/28 01:41:33;;;;;;;15.07;8.00;;;;;;;;;;5155696;27;20031;-73
2023/04/28 01:43:59;;;;;;;16.58;9.88;;;;;;;;;;5155584;27;20443;-77
2023/04/28 01:46:25;;;;;;;16.02;8.93;;;;;;;;;;5122835;27;20053;-76
2023/04/28 01:48:52;;;;;;;13.50;7.70;;;;;;;;;;5155802;27;20043;-77
2023/04/28 01:51:18;;;;;;;17.73;9.40;;;;;;;;;;5155422;27;20031;-77
2023/04/28 01:53:44;;;;;;;17.08;7.63;;;;;;;;;;5136727;27;20042;-81
2023/04/28 01:56:10;;;;;;;18.58;9.23;;;;;;;;;;5111336;27;20428;-79
2023/04/28 01:58:36;;;;;;;13.80;8.27;;;;;;;;;;5137174;27;20487;-80
2023/04/28 02:01:03;;;;;;;15.00;8.60;;;;;;;;;;5135551;27;20061;-75
2023/04/28 02:03:29;;;;;;;16.38;8.52;;;;;;;;;;5161711;27;20035;-80
2023/04/28 02:05:55;;;;;;;15.18;8.75;;;;;;;;;;5131952;27;20109;-75
2023/04/28 02:08:22;;;;;;;16.95;8.57;;;;;;;;;;5127309;27;20035;-77
2023/04/28 02:10:48;;;;;;;18.35;9.02;;;;;;;;;;5137178;27;20035;-77
2023/04/28 02:13:15;;;;;;;14.70;9.07;;;;;;;;;;5155997;27;20162;-74
2023/04/28 02:15:42;;;;;;;15.63;8.45;;;;;;;;;;5141066;27;20509;-76
2023/04/28 02:18:09;;;;;;;14.90;8.60;;;;;;;;;;5134355;27;20494;-73
2023/04/28 02:20:35;;;;;;;15.40;9.00;;;;;;;;;;5154823;27;20093;-73
2023/04/28 02:23:01;;;;;;;15.77;8.68;;;;;;;;;;5132958;27;20031;-78
2023/04/28 02:25:27;;;;;;;15.70;9.10;;;;;;;;;;5144880;27;20432;-74
2023/04/28 02:27:53;;;;;;;14.35;8.43;;;;;;;;;;5139719;27;20080;-76
2023/04/28 02:30:20;;;;;;;17.17;9.00;;;;;;;;;;5136204;27;20038;-76
2023/04/28 02:32:46;;;;;;;14.73;8.38;;;;;;;;;;5140125;27;20046;-78
2023/04/28 02:35:12;;;;;;;16.55;9.05;;;;;;;;;;5122261;27;20121;-76
2023/04/28 02:37:38;;;;;;;14.98;7.95;;;;;;;;;;5141568;27;20042;-78
2023/04/28 02:40:04;;;;;;;14.35;8.50;;;;;;;;;;5138238;27;20088;-77
2023/04/28 02:42:30;;;;;;;16.40;8.70;;;;;;;;;;5119224;27;20038;-77
2023/04/28 02:44:56;;;;;;;15.20;8.95;;;;;;;;;;5154358;27;20041;-78
2023/04/28 02:47:22;;;;;;;15.77;8.35;;;;;;;;;;5154462;27;20042;-75
2023/04/28 02:49:49;;;;;;;16.45;9.10;;;;;;;;;;5153967;27;20030;-79
2023/04/28 02:52:15;;;;;;;14.93;9.10;;;;;;;;;;5154446;27;20066;-74
2023/04/28 02:54:41;;;;;;;14.90;8.43;;;;;;;;;;5112591;27;20038;-76
2023/04/28 02:57:07;;;;;;;15.98;9.02;;;;;;;;;;5127381;27;20059;-73
2023/04/28 02:59:34;;;;;;;15.73;8.70;;;;;;;;;;5135991;27;20432;-77
2023/04/28 03:02:00;;;;;;;14.63;8.15;;;;;;;;;;5154097;27;20039;-81
2023/04/28 03:04:26;;;;;;;15.23;8.27;;;;;;;;;;5154271;27;20113;-79
2023/04/28 03:06:52;;;;;;;15.77;8.27;;;;;;;;;;5153737;27;20046;-78
2023/04/28 03:09:19;;;;;;;14.40;8.27;;;;;;;;;;5135973;27;20387;-78
2023/04/28 03:11:45;;;;;;;14.85;8.85;;;;;;;;;;5154066;27;20475;-76
2023/04/28 03:14:11;;;;;;;15.90;9.07;;;;;;;;;;5135534;27;20043;-78
2023/04/28 03:16:37;;;;;;;16.00;8.55;;;;;;;;;;5154028;27;20038;-79
2023/04/28 03:19:03;;;;;;;15.45;8.48;;;;;;;;;;5154144;27;20042;-79
2023/04/28 03:21:31;;;;;;;17.63;8.60;;;;;;;;;;5135902;27;20390;-81
2023/04/28 03:23:57;;;;;;;17.63;7.97;;;;;;;;;;5141106;27;20093;-75
2023/04/28 03:26:23;;;;;;;18.27;9.25;;;;;;;;;;5135181;27;20043;-77
2023/04/28 03:28:49;;;;;;;14.15;7.95;;;;;;;;;;5139610;27;20043;-73
2023/04/28 03:31:15;;;;;;;17.00;8.90;;;;;;;;;;5139545;27;20126;-81
2023/04/28 03:33:44;;;;;;;18.90;8.77;;;;;;;;;;5157972;27;20050;-79
2023/04/28 03:36:10;;;;;;;14.23;8.13;;;;;;;;;;5139661;27;20457;-77
2023/04/28 03:38:36;;;;;;;18.98;9.88;;;;;;;;;;5139970;27;20046;-80
2023/04/28 03:41:02;;;;;;;17.08;9.60;;;;;;;;;;5139128;27;20491;-77
2023/04/28 03:43:28;;;;;;;15.10;8.35;;;;;;;;;;5148032;27;20402;-81
2023/04/28 03:45:54;;;;;;;15.10;6.60;;;;;;;;;;5126278;27;20522;-75
2023/04/28 03:48:20;;;;;;;14.77;7.90;;;;;;;;;;5142283;27;20507;-76
2023/04/28 03:50:46;;;;;;;13.15;7.40;;;;;;;;;;5139179;27;20041;-81
2023/04/28 03:53:12;;;;;;;16.33;7.68;;;;;;;;;;5124466;27;20079;-80
2023/04/28 03:55:38;;;;;;;15.35;9.02;;;;;;;;;;5105215;27;20053;-77
2023/04/28 03:58:05;;;;;;;17.80;8.80;;;;;;;;;;5138961;27;20056;-76
2023/04/28 04:00:31;;;;;;;17.35;8.98;;;;;;;;;;5150245;27;20031;-78
2023/04/28 04:02:57;;;;;;;15.27;8.48;;;;;;;;;;5133438;27;20074;-73
2023/04/28 04:05:23;;;;;;;16.23;9.13;;;;;;;;;;5136440;27;20396;-78
2023/04/28 04:07:49;;;;;;;17.55;9.18;;;;;;;;;;5136301;27;20036;-72
2023/04/28 04:10:15;;;;;;;16.40;9.00;;;;;;;;;;5150052;27;20031;-74
2023/04/28 04:12:41;;;;;;;18.35;9.50;;;;;;;;;;5101360;27;20122;-76
2023/04/28 04:15:08;;;;;;;19.55;9.40;;;;;;;;;;5118182;27;20483;-80
2023/04/28 04:17:34;;;;;;;20.45;9.95;;;;;;;;;;5136661;27;20479;-74
2023/04/28 04:20:00;;;;;;;15.40;9.23;;;;;;;;;;5132090;27;20046;-80
2023/04/28 04:22:26;;;;;;;18.67;8.95;;;;;;;;;;5100983;27;20043;-76
2023/04/28 04:24:52;;;;;;;18.42;9.77;;;;;;;;;;5130804;27;20046;-73
2023/04/28 04:27:18;;;;;;;16.27;8.82;;;;;;;;;;5138130;27;20061;-77
2023/04/28 04:29:45;;;;;;;16.60;8.05;;;;;;;;;;5121475;27;20047;-77
2023/04/28 04:32:11;;;;;;;17.27;10.25;;;;;;;;;;5138444;27;20041;-80
2023/04/28 04:34:37;;;;;;;20.70;9.82;;;;;;;;;;5156964;27;20479;-77
2023/04/28 04:37:04;;;;;;;19.52;9.90;;;;;;;;;;5137658;27;20042;-79
2023/04/28 04:39:30;;;;;;;16.73;9.50;;;;;;;;;;5131606;27;20042;-81
2023/04/28 04:41:56;;;;;;;20.10;11.00;;;;;;;;;;5138302;27;20502;-81
2023/04/28 04:44:22;;;;;;;18.73;10.15;;;;;;;;;;5156505;27;20045;-81
2023/04/28 04:46:48;;;;;;;19.23;10.38;;;;;;;;;;5137786;27;20034;-79
2023/04/28 04:49:15;;;;;;;15.35;9.07;;;;;;;;;;5138347;27;20471;-75
2023/04/28 04:51:41;;;;;;;19.10;10.55;;;;;;;;;;5154392;27;20031;-76
2023/04/28 04:54:07;;;;;;;19.85;9.05;;;;;;;;;;5150303;27;20091;-78
2023/04/28 04:56:33;;;;;;;16.50;10.27;;;;;;;;;;5155335;27;20043;-80
2023/04/28 04:58:59;;;;;;;25.08;11.23;;;;;;;;;;5135746;27;20042;-77
2023/04/28 05:01:25;;;;;;;20.25;10.88;;;;;;;;;;5104592;27;20126;-79
2023/04/28 05:03:51;;;;;;;20.85;10.57;;;;;;;;;;5117239;27;20032;-78
2023/04/28 05:06:18;;;;;;;18.75;10.48;;;;;;;;;;5135621;27;20414;-76
2023/04/28 05:08:44;;;;;;;18.98;10.43;;;;;;;;;;5138194;27;20049;-78
2023/04/28 05:11:10;;;;;;;19.00;10.10;;;;;;;;;;5118493;27;20148;-77
2023/04/28 05:13:36;;;;;;;22.05;9.55;;;;;;;;;;5125522;27;20038;-80
2023/04/28 05:16:02;;;;;;;18.88;10.30;;;;;;;;;;5141286;27;20055;-76
2023/04/28 05:18:28;;;;;;;21.65;10.55;;;;;;;;;;5125770;27;20039;-75
2023/04/28 05:20:55;;;;;;;17.80;8.82;;;;;;;;;;5122835;27;20040;-78
2023/04/28 05:23:21;;;;;;;14.43;7.93;;;;;;;;;;5120441;27;20099;-77
2023/04/28 05:25:47;;;;;;;17.83;10.05;;;;;;;;;;5137559;27;20433;-80
2023/04/28 05:28:13;;;;;;;14.13;7.32;;;;;;;;;;5133690;27;20054;-76
2023/04/28 05:30:40;;;;;;;17.73;10.38;;;;;;;;;;5134347;27;20046;-76
2023/04/28 05:33:06;;;;;;;19.38;10.70;;;;;;;;;;5093233;28;20089;-76
2023/04/28 05:35:32;;;;;;;18.63;9.90;;;;;;;;;;5120063;27;20039;-80
2023/04/28 05:37:58;;;;;;;18.80;9.82;;;;;;;;;;5129912;27;20038;-76
2023/04/28 05:40:25;;;;;;;17.38;9.95;;;;;;;;;;5107245;27;20108;-81
2023/04/28 05:42:51;;;;;;;20.95;10.20;;;;;;;;;;5099595;28;20043;-78
2023/04/28 05:45:17;;;;;;;18.92;10.48;;;;;;;;;;5106371;28;20079;-75
2023/04/28 05:47:43;;;;;;;19.45;11.07;;;;;;;;;;5119471;27;20039;-80
2023/04/28 05:50:09;;;;;;;18.90;10.50;;;;;;;;;;5114171;27;20071;-79
2023/04/28 05:52:35;;;;;;;18.85;10.80;;;;;;;;;;5105379;28;20072;-78
2023/04/28 05:55:02;;;;;;;20.05;11.20;;;;;;;;;;5110161;27;20549;-79
2023/04/28 05:57:28;;;;;;;17.23;9.95;;;;;;;;;;5127517;27;20050;-75
2023/04/28 05:59:54;;;;;;;16.95;8.30;;;;;;;;;;5128158;27;20086;-79
2023/04/28 06:02:20;;;;;;;18.35;10.68;;;;;;;;;;5097815;28;20465;-76
2023/04/28 06:04:46;;;;;;;15.90;9.10;;;;;;;;;;5120308;27;20071;-78
2023/04/28 06:07:12;;;;;;;18.75;9.70;;;;;;;;;;5125358;27;20040;-76
2023/04/28 06:09:38;;;;;;;17.52;8.43;;;;;;;;;;5104683;27;20169;-79
2023/04/28 06:12:05;;;;;;;19.35;9.20;;;;;;;;;;5134947;27;20039;-80
2023/04/28 06:14:31;;;;;;;15.07;7.65;;;;;;;;;;5136131;27;20068;-76
2023/04/28 06:16:57;;;;;;;18.98;10.68;;;;;;;;;;5136420;27;20171;-78
2023/04/28 06:19:23;;;;;;;17.42;9.95;;;;;;;;;;5114493;27;20046;-79
2023/04/28 06:21:51;;;;;;;20.67;10.07;;;;;;;;;;5116537;27;20062;-78
2023/04/28 06:24:17;;;;;;;18.08;9.65;;;;;;;;;;5134320;27;20571;-80
2023/04/28 06:26:43;;;;;;;20.17;10.63;;;;;;;;;;5117131;27;20172;-73
2023/04/28 06:29:10;;;;;;;16.88;9.60;;;;;;;;;;5133080;27;20062;-76
2023/04/28 06:31:37;;;;;;;20.30;10.73;;;;;;;;;;5092684;28;20043;-80
2023/04/28 06:34:03;;;;;;;17.15;8.85;;;;;;;;;;5103145;28;20476;-76
2023/04/28 06:36:29;;;;;;;15.45;9.52;;;;;;;;;;5114110;28;20055;-76
2023/04/28 06:38:55;;;;;;;17.52;10.10;;;;;;;;;;5113694;28;20404;-76
2023/04/28 06:41:21;;;;;;;14.38;7.57;;;;;;;;;;5127794;27;20395;-73
2023/04/28 06:43:48;;;;;;;14.45;8.80;;;;;;;;;;5125342;27;20042;-76
2023/04/28 06:46:14;;;;;;;16.40;8.13;;;;;;;;;;5113535;27;20035;-72
2023/04/28 06:48:40;;;;;;;21.38;9.95;;;;;;;;;;5112507;28;20047;-76
2023/04/28 06:51:06;;;;;;;15.35;8.93;;;;;;;;;;5097548;28;20040;-76
2023/04/28 06:53:32;;;;;;;18.77;8.90;;;;;;;;;;5113558;28;20047;-75
2023/04/28 06:55:58;;;;;;;16.40;8.40;;;;;;;;;;5113059;28;20095;-75
2023/04/28 06:58:25;;;;;;;17.42;8.73;;;;;;;;;;5112827;28;20074;-77
2023/04/28 07:00:51;;;;;;;16.40;8.80;;;;;;;;;;5112176;28;20441;-74
2023/04/28 07:03:17;;;;;;;16.08;8.13;;;;;;;;;;5112559;28;20388;-73
2023/04/28 07:05:43;;;;;;;19.08;7.90;;;;;;;;;;5113133;28;20043;-74
2023/04/28 07:08:09;;;;;;;17.48;9.82;;;;;;;;;;5112983;28;20040;-79
2023/04/28 07:10:35;;;;;;;17.40;9.32;;;;;;;;;;5111990;28;20514;-79
2023/04/28 07:13:01;;;;;;;14.10;8.55;;;;;;;;;;5111814;28;20118;-74
2023/04/28 07:15:28;;;;;;;15.98;9.27;;;;;;;;;;5112992;28;20176;-76
2023/04/28 07:17:54;;;;;;;15.07;8.02;;;;;;;;;;5111691;28;20082;-80
2023/04/28 07:20:20;;;;;;;14.45;8.45;;;;;;;;;;5091326;28;20071;-75
2023/04/28 07:22:46;;;;;;;16.50;9.43;;;;;;;;;;5102867;28;20067;-80
2023/04/28 07:25:12;;;;;;;15.60;9.15;;;;;;;;;;5111232;28;20039;-76
2023/04/28 07:27:39;;;;;;;15.73;8.68;;;;;;;;;;5118490;28;20062;-76
2023/04/28 07:30:05;;;;;;;14.70;8.63;;;;;;;;;;5130473;27;20095;-76
2023/04/28 07:32:31;;;;;;;19.92;8.85;;;;;;;;;;5139416;27;20034;-76
2023/04/28 07:34:57;;;;;;;16.13;9.43;;;;;;;;;;5135350;27;20042;-74
2023/04/28 07:37:23;;;;;;;17.50;9.55;;;;;;;;;;5154233;27;20394;-77
2023/04/28 07:39:50;;;;;;;15.32;8.32;;;;;;;;;;5153831;27;20031;-77
2023/04/28 07:42:17;;;;;;;18.15;9.73;;;;;;;;;;5135151;27;20041;-74
2023/04/28 07:44:44;;;;;;;17.38;10.18;;;;;;;;;;5114975;28;20044;-74
2023/04/28 07:47:10;;;;;;;15.25;8.80;;;;;;;;;;5127231;27;20045;-76
2023/04/28 07:49:36;;;;;;;16.92;10.00;;;;;;;;;;5153776;27;20066;-76
2023/04/28 07:52:02;;;;;;;15.57;9.48;;;;;;;;;;5135574;27;20510;-76
2023/04/28 07:54:28;;;;;;;13.98;9.27;;;;;;;;;;5135087;27;20038;-74
2023/04/28 07:56:59;;;;;;;17.17;9.52;;;;;;;;;;5135667;27;20421;-79
2023/04/28 07:59:25;;;;;;;15.73;9.35;;;;;;;;;;5135216;27;20043;-75
2023/04/28 08:01:52;;;;;;;18.42;9.85;;;;;;;;;;5153909;27;20074;-77
2023/04/28 08:04:18;;;;;;;14.63;8.57;;;;;;;;;;5117807;27;20046;-75
2023/04/28 08:06:44;;;;;;;17.38;10.07;;;;;;;;;;5130008;28;20112;-75
2023/04/28 08:09:10;;;;;;;18.73;10.27;;;;;;;;;;5144536;27;20045;-74
2023/04/28 08:11:36;;;;;;;19.67;9.25;;;;;;;;;;5154026;27;20103;-74
2023/04/28 08:14:02;;;;;;;14.50;9.23;;;;;;;;;;5129059;27;20043;-73
2023/04/28 08:16:29;;;;;;;16.15;10.23;;;;;;;;;;5102582;27;20099;-75
2023/04/28 08:18:55;;;;;;;17.67;10.15;;;;;;;;;;5139090;27;20454;-74
2023/04/28 08:21:21;;;;;;;19.38;10.68;;;;;;;;;;5157377;27;20496;-74
2023/04/28 08:23:48;;;;;;;16.88;10.15;;;;;;;;;;5138746;27;20398;-75
2023/04/28 08:26:14;;;;;;;15.90;10.05;;;;;;;;;;5138457;27;20049;-74
2023/04/28 08:28:40;;;;;;;16.02;9.70;;;;;;;;;;5153253;27;20126;-74
2023/04/28 08:31:07;;;;;;;16.58;10.48;;;;;;;;;;5128218;27;20108;-77
2023/04/28 08:33:33;;;;;;;16.27;8.77;;;;;;;;;;5156555;27;20049;-76
2023/04/28 08:35:59;;;;;;;16.30;9.55;;;;;;;;;;5121722;27;20402;-73
2023/04/28 08:38:26;;;;;;;14.88;9.02;;;;;;;;;;5156586;27;20111;-76
2023/04/28 08:40:52;;;;;;;17.70;10.20;;;;;;;;;;5142686;27;20030;-74
2023/04/28 08:43:20;;;;;;;15.02;8.88;;;;;;;;;;5138209;27;20038;-78
2023/04/28 08:45:46;;;;;;;14.48;9.40;;;;;;;;;;5123736;27;20096;-74
2023/04/28 08:48:20;;;;;;;14.95;9.93;;;;;;;;;;5131298;27;20043;-73
2023/04/28 08:50:48;;;;;;;15.07;9.68;;;;;;;;;;5150271;27;20429;-75
2023/04/28 08:53:17;;;;;;;14.40;8.80;;;;;;;;;;5106999;27;20114;-79
2023/04/28 08:55:43;;;;;;;14.65;9.57;;;;;;;;;;5109358;27;20373;-74
2023/04/28 08:58:10;;;;;;;13.65;9.60;;;;;;;;;;5138172;27;20042;-75
2023/04/28 09:00:37;;;;;;;15.65;9.40;;;;;;;;;;5156386;27;20070;-74
2023/04/28 09:03:04;;;;;;;15.40;9.93;;;;;;;;;;5103937;27;20035;-78
2023/04/28 09:05:30;;;;;;;15.20;8.57;;;;;;;;;;5100168;27;20510;-73
2023/04/28 09:07:57;;;;;;;13.88;8.10;;;;;;;;;;5135630;27;20058;-78
2023/04/28 09:10:24;;;;;;;15.73;9.75;;;;;;;;;;5116905;27;20125;-80
2023/04/28 09:12:52;;;;;;;16.45;9.73;;;;;;;;;;5117304;27;20077;-76
2023/04/28 09:15:35;;;;;;;15.20;9.00;;;;;;;;;;5122848;27;20509;-75
2023/04/28 09:18:05;;;;;;;14.40;8.90;;;;;;;;;;5156133;27;20508;-79
2023/04/28 09:20:32;;;;;;;15.63;9.32;;;;;;;;;;5114421;27;20092;-77
2023/04/28 09:23:12;;;;;;;15.88;9.18;;;;;;;;;;5148423;27;20450;-77
2023/04/28 09:25:38;;;;;;;14.43;9.70;;;;;;;;;;5130144;27;20035;-75
2023/04/28 09:28:23;;;;;;;13.82;8.65;;;;;;;;;;5109412;27;20058;-77
2023/04/28 09:30:49;;;;;;;14.10;8.68;;;;;;;;;;5113433;28;20039;-79
2023/04/28 09:33:15;;;;;;;12.10;8.27;;;;;;;;;;5128286;27;20387;-79
2023/04/28 09:35:44;;;;;;;15.75;9.10;;;;;;;;;;5129770;27;20541;-74
2023/04/28 09:38:10;;;;;;;15.05;9.25;;;;;;;;;;5113224;28;20039;-78
2023/04/28 09:40:55;;;;;;;13.75;7.82;;;;;;;;;;5128617;27;20468;-74
2023/04/28 09:43:28;;;;;;;13.60;9.10;;;;;;;;;;5116726;27;20042;-75
2023/04/28 09:45:55;;;;;;;14.10;8.88;;;;;;;;;;5102594;27;20525;-73
2023/04/28 09:48:28;;;;;;;14.57;8.90;;;;;;;;;;5101105;28;20074;-78
2023/04/28 09:50:55;;;;;;;13.70;8.75;;;;;;;;;;5128625;27;20039;-75
2023/04/28 09:53:25;;;;;;;14.82;9.18;;;;;;;;;;5120386;27;20078;-78
2023/04/28 09:55:55;;;;;;;14.13;7.38;;;;;;;;;;5133001;27;20560;-75
2023/04/28 09:58:22;;;;;;;11.75;7.70;;;;;;;;;;5133767;27;20082;-79
2023/04/28 10:00:52;;;;;;;13.70;9.07;;;;;;;;;;5124572;27;20043;-74
2023/04/28 10:03:20;;;;;;;11.45;8.18;;;;;;;;;;5128220;27;20448;-75
2023/04/28 10:05:48;;;;;;;13.75;8.40;;;;;;;;;;5125700;27;20126;-75
2023/04/28 10:08:14;;;;;;;14.20;8.45;;;;;;;;;;5126625;27;20043;-75
2023/04/28 10:10:41;;;;;;;14.07;7.85;;;;;;;;;;5115822;27;20034;-78
2023/04/28 10:13:07;;;;;;;10.75;8.38;;;;;;;;;;5133050;27;20054;-75
2023/04/28 10:15:34;;;;;;;13.75;7.95;;;;;;;;;;5125429;27;20047;-78
2023/04/28 10:18:00;;;;;;;12.43;7.93;;;;;;;;;;5125949;27;20043;-78
2023/04/28 10:20:28;;;;;;;10.98;7.90;;;;;;;;;;5114168;28;20035;-77
2023/04/28 10:22:58;;;;;;;13.82;7.63;;;;;;;;;;5113076;28;20039;-77
2023/04/28 10:25:29;;;;;;;10.15;7.22;;;;;;;;;;5130907;27;20043;-78
2023/04/28 10:27:55;;;;;;;9.52;7.03;;;;;;;;;;5115326;27;20079;-78
2023/04/28 10:30:22;;;;;;;9.95;7.30;;;;;;;;;;5126940;27;20043;-75
2023/04/28 10:33:08;;;;;;;11.48;7.55;;;;;;;;;;5113116;28;20071;-78
2023/04/28 10:35:39;;;;;;;14.07;7.85;;;;;;;;;;5112040;28;20514;-75
2023/04/28 10:38:07;;;;;;;10.77;7.63;;;;;;;;;;5120019;27;20039;-74
2023/04/28 10:40:37;;;;;;;11.57;8.23;;;;;;;;;;5132287;27;20050;-76
2023/04/28 10:43:04;;;;;;;10.57;7.85;;;;;;;;;;5119311;27;20064;-78
2023/04/28 10:45:48;;;;;;;13.38;8.20;;;;;;;;;;5132087;27;20039;-74
2023/04/28 10:48:15;;;;;;;17.27;8.38;;;;;;;;;;5119418;27;20035;-78
2023/04/28 10:51:00;;;;;;;13.07;7.93;;;;;;;;;;5108213;28;20043;-74
2023/04/28 10:53:44;;;;;;;15.20;8.60;;;;;;;;;;5127868;27;20095;-76
2023/04/28 10:56:10;;;;;;;13.95;8.52;;;;;;;;;;5132370;27;20051;-75
2023/04/28 10:58:41;;;;;;;11.13;7.95;;;;;;;;;;5132310;27;20053;-78
2023/04/28 11:01:25;;;;;;;11.15;8.30;;;;;;;;;;5128440;27;20385;-74
2023/04/28 11:06:35;;;;;;;12.00;8.52;;;;;;;;;;5120492;28;20047;-77
2023/04/28 11:09:24;;;;;;;11.38;8.98;;;;;;;;;;5131276;28;20031;-77
2023/04/28 11:11:59;;;;;;;14.80;9.48;;;;;;;;;;5084218;28;20043;-78
2023/04/28 11:14:25;;;;;;;14.30;9.57;;;;;;;;;;5112977;28;20031;-75
2023/04/28 11:16:51;;;;;;;14.32;10.10;;;;;;;;;;5123974;28;20047;-75
2023/04/28 11:19:22;;;;;;;16.15;9.80;;;;;;;;;;5127703;28;20071;-75
2023/04/28 11:21:48;;;;;;;14.18;9.73;;;;;;;;;;5119799;28;20039;-78
2023/04/28 11:24:14;;;;;;;13.48;9.82;;;;;;;;;;5132346;28;20040;-79
2023/04/28 11:26:41;;;;;;;13.60;10.10;;;;;;;;;;5133157;28;20088;-74
2023/04/28 11:29:08;;;;;;;12.98;10.80;;;;;;;;;;5101478;28;20084;-75
2023/04/28 11:31:34;;;;;;;15.88;11.30;;;;;;;;;;5132028;28;20050;-76
2023/04/28 11:34:04;;;;;;;15.48;10.60;;;;;;;;;;5126608;28;20043;-75
2023/04/28 11:36:41;;;;;;;14.32;10.98;;;;;;;;;;5131944;28;20071;-74
2023/04/28 11:39:11;;;;;;;14.65;10.93;;;;;;;;;;5131110;28;20403;-74
2023/04/28 11:41:38;;;;;;;19.42;11.85;;;;;;;;;;5112031;28;20039;-77
2023/04/28 11:44:18;;;;;;;17.05;11.95;;;;;;;;;;5127409;28;20123;-77
2023/04/28 11:46:54;;;;;;;23.15;14.05;;;;;;;;;;5121258;27;20484;-74
2023/04/28 11:49:21;;;;;;;19.42;13.93;;;;;;;;;;5126969;27;20479;-76
2023/04/28 11:51:48;;;;;;;22.25;15.02;;;;;;;;;;5127606;27;20039;-77
2023/04/28 11:54:19;;;;;;;21.33;15.88;;;;;;;;;;5121266;27;20031;-76
2023/04/28 11:56:46;;;;;;;25.33;16.25;;;;;;;;;;5138127;27;20045;-75
2023/04/28 11:59:13;;;;;;;28.20;19.73;;;;;;;;;;5121758;27;20054;-75
2023/04/28 12:01:46;;;;;;;30.85;21.45;;;;;;;;;;5139278;27;20488;-75
2023/04/28 12:04:13;;;;;;;34.75;22.08;;;;;;;;;;5120282;27;20049;-76
2023/04/28 12:06:39;;;;;;;32.17;22.05;;;;;;;;;;5137051;27;20038;-76
2023/04/28 12:09:24;;;;;;;36.75;23.45;;;;;;;;;;5124119;27;20042;-77
2023/04/28 12:11:57;;;;;;;39.10;25.52;;;;;;;;;;5117181;28;20399;-76
2023/04/28 12:14:24;;;;;;;41.22;26.00;;;;;;;;;;5115003;27;20039;-75
2023/04/28 12:16:50;;;;;;;39.95;24.98;;;;;;;;;;5130220;27;20035;-76
2023/04/28 12:19:18;;;;;;;36.33;23.92;;;;;;;;;;5116969;28;20051;-75
2023/04/28 12:21:57;;;;;;;36.10;26.10;;;;;;;;;;5134726;27;20035;-76
2023/04/28 12:24:25;;;;;;;36.53;25.95;;;;;;;;;;5136789;27;20066;-75
2023/04/28 12:26:52;;;;;;;40.42;27.05;;;;;;;;;;5135843;27;20047;-76
2023/04/28 12:29:38;;;;;;;40.65;28.15;;;;;;;;;;5158151;27;20043;-75
2023/04/28 12:32:11;;;;;;;43.80;30.35;;;;;;;;;;5125273;27;20041;-76
2023/04/28 12:34:42;;;;;;;45.88;30.80;;;;;;;;;;5139165;27;20042;-76
2023/04/28 12:37:08;;;;;;;51.15;32.80;;;;;;;;;;5107877;27;20122;-76
2023/04/28 12:39:39;;;;;;;53.38;34.30;;;;;;;;;;5121825;27;20434;-76
2023/04/28 12:42:05;;;;;;;50.78;33.33;;;;;;;;;;5133118;27;20039;-75
2023/04/28 12:44:36;;;;;;;45.83;32.35;;;;;;;;;;5136578;27;20248;-75
2023/04/28 12:47:11;;;;;;;46.25;32.67;;;;;;;;;;5156165;27;20117;-76
2023/04/28 12:49:37;;;;;;;51.78;33.85;;;;;;;;;;5156780;27;20483;-76
2023/04/28 12:52:04;;;;;;;53.08;34.83;;;;;;;;;;5109994;27;20043;-75
2023/04/28 12:54:30;;;;;;;47.40;33.35;;;;;;;;;;5134564;27;20129;-75
2023/04/28 12:56:56;;;;;;;48.28;32.65;;;;;;;;;;5120770;27;20046;-75
2023/04/28 12:59:23;;;;;;;39.63;29.48;;;;;;;;;;5154638;27;20042;-75
2023/04/28 13:01:49;;;;;;;42.63;31.30;;;;;;;;;;5128526;27;20118;-76
2023/04/28 13:04:16;;;;;;;39.92;29.55;;;;;;;;;;5137918;27;20114;-75
2023/04/28 13:06:43;;;;;;;42.35;29.42;;;;;;;;;;5137909;27;20047;-75
2023/04/28 13:09:13;;;;;;;38.40;29.27;;;;;;;;;;5137935;27;20043;-76
2023/04/28 13:11:40;;;;;;;36.85;28.88;;;;;;;;;;5156073;27;20041;-75
2023/04/28 13:14:06;;;;;;;41.03;30.58;;;;;;;;;;5137940;27;20035;-76
2023/04/28 13:16:33;;;;;;;40.95;30.42;;;;;;;;;;5122957;27;20039;-76
2023/04/28 13:18:59;;;;;;;41.13;31.17;;;;;;;;;;5156143;27;20031;-76
2023/04/28 13:21:25;;;;;;;40.58;29.88;;;;;;;;;;5137586;27;20099;-76
2023/04/28 13:23:56;;;;;;;40.42;29.50;;;;;;;;;;5106141;27;20362;-76
2023/04/28 13:26:25;;;;;;;41.05;31.33;;;;;;;;;;5137465;27;20099;-77
2023/04/28 13:28:51;;;;;;;43.95;30.38;;;;;;;;;;5137007;27;20098;-76
2023/04/28 13:31:18;;;;;;;44.92;31.85;;;;;;;;;;5137703;27;20049;-76
2023/04/28 13:33:44;;;;;;;49.15;33.22;;;;;;;;;;5152351;27;20106;-76
2023/04/28 13:36:11;;;;;;;52.67;35.97;;;;;;;;;;5126407;27;20127;-76
2023/04/28 13:38:37;;;;;;;50.30;34.95;;;;;;;;;;5155673;27;20515;-76
2023/04/28 13:41:03;;;;;;;54.90;37.63;;;;;;;;;;5155425;27;20039;-75
2023/04/28 13:43:30;;;;;;;56.03;36.75;;;;;;;;;;5137035;27;20050;-75
2023/04/28 13:45:56;;;;;;;50.00;35.22;;;;;;;;;;5119440;27;20047;-75
2023/04/28 13:48:23;;;;;;;48.17;34.55;;;;;;;;;;5136952;27;20078;-76
2023/04/28 13:50:49;;;;;;;54.10;35.17;;;;;;;;;;5155283;27;20110;-76
2023/04/28 13:53:16;;;;;;;46.47;32.83;;;;;;;;;;5136668;27;20091;-76
2023/04/28 13:55:42;;;;;;;44.33;31.42;;;;;;;;;;5136728;27;20126;-76
2023/04/28 13:58:08;;;;;;;44.17;30.70;;;;;;;;;;5155196;27;20034;-76
2023/04/28 14:00:36;;;;;;;43.50;29.88;;;;;;;;;;5155620;27;20070;-76
2023/04/28 14:03:02;;;;;;;39.78;27.27;;;;;;;;;;5136451;27;20119;-76
2023/04/28 14:05:28;;;;;;;35.08;24.98;;;;;;;;;;5119844;27;20034;-76
2023/04/28 14:07:54;;;;;;;39.35;27.30;;;;;;;;;;5116503;27;20035;-77
2023/04/28 14:10:21;;;;;;;34.92;25.35;;;;;;;;;;5136684;27;20042;-77
2023/04/28 14:12:47;;;;;;;31.08;23.75;;;;;;;;;;5119476;27;20054;-76
2023/04/28 14:15:15;;;;;;;26.17;20.42;;;;;;;;;;5114452;27;20503;-76
2023/04/28 14:17:41;;;;;;;24.98;19.85;;;;;;;;;;5146111;27;20049;-77
2023/04/28 14:20:10;;;;;;;25.48;19.55;;;;;;;;;;5132856;27;20047;-77
2023/04/28 14:22:36;;;;;;;27.23;20.05;;;;;;;;;;5126164;27;20059;-77
2023/04/28 14:25:02;;;;;;;25.60;19.33;;;;;;;;;;5154760;27;20050;-77
2023/04/28 14:27:28;;;;;;;24.92;18.35;;;;;;;;;;5154400;27;20061;-77
2023/04/28 14:29:54;;;;;;;25.25;17.60;;;;;;;;;;5119298;27;20110;-75